Missouri River (Missouri), Boonville (06909000)

StateMissouriLatestUnknown (69500 cfs)
RiverMissouri RiverRatingObservedEstimated
Updated2020-07-13 18:30 (1 hour ago)Flood - The river is flooding. Obstacles can be treacherous or deadly. The river should be avoided at this stage for casual trips and definitely for the inexperienced. Trips should be attempted only with protective gear and equipment.Flood(none)(none)
Discharge69500 cfs (median: 74900 cfs)High - The river is high and potentially dangerous, especially for the young and / or inexperienced. Normal stream obstacles are sometimes difficult to navigate. Extended distances can be attempted, but canoe travel may not be advisable.High(none)(none)
Height11.23 feetGood - Conditions are ideal for a canoe or kayak. Boats typically will drag on fewer than one-quarter of riffles, if at all, and portages are unnecessary or rare. Normal float lengths can be attempted without a problem.Good(none)(none)
TrendFalling (falling over 24 hours)Low - River is low but can still be floated. Some riffles are okay but most come with significant dragging and might need a portage. Float lengths should be reduced to accommodate low flow, dragging, and portages.Low(none)(none)
USGSExternal icon USGS Site (External icon Google Maps)Poor - River is too low to float comfortably. Most or all riffles will drag or must be portaged and some obstacles (such as slick shelf rock) cause undue problems. Avoid the river at this stage for casual paddling trips.Poor(none)(none)

Trending Data

Plot Image

Trips for Missouri River (Missouri), Boonville (06909000)

DateStartEndDistanceConditionDischargeHeightFishingDetails

A total of 0 rows are displayed.

Condition Descriptions

Fishing Conditions

Fish Species

Notes

Classic Trip List

The classic River Trips application is still available for use. It is updated with the new system using a data retrofit. It is no longer maintained. The original River Trips application is no longer updated (as of 1 Dec 2016) but can be checked for errors or for the condition of the data before it was converted to the new system.

Gauge Data Table

ObservationHeightDischargeMaximum
Discharge
Minimum
Discharge
Mean
Discharge
P05P10P20P25P50
(Median)
P75P80P90P95
2020-07-13 18:30 11.23 69500 400000 (1993) 36700 (2006) 89100 39800 41100 45300 47800 74900 103000 124000 173000 207000
2020-07-13 17:30 11.27 69800 400000 (1993) 36700 (2006) 89100 39800 41100 45300 47800 74900 103000 124000 173000 207000
2020-07-13 16:30 11.22 69400 400000 (1993) 36700 (2006) 89100 39800 41100 45300 47800 74900 103000 124000 173000 207000
2020-07-13 15:30 11.29 69900 400000 (1993) 36700 (2006) 89100 39800 41100 45300 47800 74900 103000 124000 173000 207000
2020-07-13 14:30 11.29 69900 400000 (1993) 36700 (2006) 89100 39800 41100 45300 47800 74900 103000 124000 173000 207000
2020-07-13 13:30 11.32 70100 400000 (1993) 36700 (2006) 89100 39800 41100 45300 47800 74900 103000 124000 173000 207000
2020-07-13 12:30 11.39 70700 400000 (1993) 36700 (2006) 89100 39800 41100 45300 47800 74900 103000 124000 173000 207000
2020-07-13 11:30 11.37 70500 400000 (1993) 36700 (2006) 89100 39800 41100 45300 47800 74900 103000 124000 173000 207000
2020-07-13 10:30 11.44 71000 400000 (1993) 36700 (2006) 89100 39800 41100 45300 47800 74900 103000 124000 173000 207000
2020-07-13 09:30 11.47 71300 400000 (1993) 36700 (2006) 89100 39800 41100 45300 47800 74900 103000 124000 173000 207000
2020-07-13 08:30 11.43 71000 400000 (1993) 36700 (2006) 89100 39800 41100 45300 47800 74900 103000 124000 173000 207000
2020-07-13 07:30 11.45 71100 400000 (1993) 36700 (2006) 89100 39800 41100 45300 47800 74900 103000 124000 173000 207000
2020-07-13 06:30 11.52 71600 400000 (1993) 36700 (2006) 89100 39800 41100 45300 47800 74900 103000 124000 173000 207000
2020-07-13 05:30 11.54 71800 400000 (1993) 36700 (2006) 89100 39800 41100 45300 47800 74900 103000 124000 173000 207000
2020-07-13 04:30 11.55 71900 400000 (1993) 36700 (2006) 89100 39800 41100 45300 47800 74900 103000 124000 173000 207000
2020-07-13 03:30 11.57 72000 400000 (1993) 36700 (2006) 89100 39800 41100 45300 47800 74900 103000 124000 173000 207000
2020-07-13 02:30 11.61 72300 400000 (1993) 36700 (2006) 89100 39800 41100 45300 47800 74900 103000 124000 173000 207000
2020-07-13 01:30 11.63 72500 400000 (1993) 36700 (2006) 89100 39800 41100 45300 47800 74900 103000 124000 173000 207000
2020-07-13 00:30 11.63 72500 400000 (1993) 36700 (2006) 89100 39800 41100 45300 47800 74900 103000 124000 173000 207000
2020-07-12 23:30 11.65 72600 375000 (1993) 36000 (2006) 88500 39500 40800 46500 48900 70900 106000 120000 159000 230000
2020-07-12 22:30 11.67 72800 375000 (1993) 36000 (2006) 88500 39500 40800 46500 48900 70900 106000 120000 159000 230000
2020-07-12 21:30 11.56 71900 375000 (1993) 36000 (2006) 88500 39500 40800 46500 48900 70900 106000 120000 159000 230000
2020-07-12 20:30 11.70 73000 375000 (1993) 36000 (2006) 88500 39500 40800 46500 48900 70900 106000 120000 159000 230000
2020-07-12 19:30 11.71 73100 375000 (1993) 36000 (2006) 88500 39500 40800 46500 48900 70900 106000 120000 159000 230000
2020-07-12 18:30 11.73 73200 375000 (1993) 36000 (2006) 88500 39500 40800 46500 48900 70900 106000 120000 159000 230000
2020-07-12 17:30 11.73 73200 375000 (1993) 36000 (2006) 88500 39500 40800 46500 48900 70900 106000 120000 159000 230000
2020-07-12 16:30 11.76 73400 375000 (1993) 36000 (2006) 88500 39500 40800 46500 48900 70900 106000 120000 159000 230000
2020-07-12 15:30 11.67 72800 375000 (1993) 36000 (2006) 88500 39500 40800 46500 48900 70900 106000 120000 159000 230000
2020-07-12 14:30 11.74 73300 375000 (1993) 36000 (2006) 88500 39500 40800 46500 48900 70900 106000 120000 159000 230000
2020-07-12 13:30 11.71 73100 375000 (1993) 36000 (2006) 88500 39500 40800 46500 48900 70900 106000 120000 159000 230000
2020-07-12 12:30 11.78 73600 375000 (1993) 36000 (2006) 88500 39500 40800 46500 48900 70900 106000 120000 159000 230000
2020-07-12 11:30 11.77 73500 375000 (1993) 36000 (2006) 88500 39500 40800 46500 48900 70900 106000 120000 159000 230000
2020-07-12 10:30 11.81 73800 375000 (1993) 36000 (2006) 88500 39500 40800 46500 48900 70900 106000 120000 159000 230000
2020-07-12 09:30 11.78 73600 375000 (1993) 36000 (2006) 88500 39500 40800 46500 48900 70900 106000 120000 159000 230000
2020-07-12 08:30 11.80 73800 375000 (1993) 36000 (2006) 88500 39500 40800 46500 48900 70900 106000 120000 159000 230000
2020-07-12 07:30 11.83 74000 375000 (1993) 36000 (2006) 88500 39500 40800 46500 48900 70900 106000 120000 159000 230000
2020-07-12 06:30 11.84 74100 375000 (1993) 36000 (2006) 88500 39500 40800 46500 48900 70900 106000 120000 159000 230000
2020-07-12 05:30 11.85 74100 375000 (1993) 36000 (2006) 88500 39500 40800 46500 48900 70900 106000 120000 159000 230000
2020-07-12 04:30 11.87 74300 375000 (1993) 36000 (2006) 88500 39500 40800 46500 48900 70900 106000 120000 159000 230000
2020-07-12 03:30 11.89 74500 375000 (1993) 36000 (2006) 88500 39500 40800 46500 48900 70900 106000 120000 159000 230000
2020-07-12 02:30 11.89 74500 375000 (1993) 36000 (2006) 88500 39500 40800 46500 48900 70900 106000 120000 159000 230000
2020-07-12 01:30 11.91 74600 375000 (1993) 36000 (2006) 88500 39500 40800 46500 48900 70900 106000 120000 159000 230000
2020-07-12 00:30 11.89 74500 375000 (1993) 36000 (2006) 88500 39500 40800 46500 48900 70900 106000 120000 159000 230000
2020-07-11 23:30 11.90 74500 318000 (1993) 35300 (2006) 87100 39400 42100 47900 49500 67200 104000 120000 163000 212000
2020-07-11 22:30 11.93 74800 318000 (1993) 35300 (2006) 87100 39400 42100 47900 49500 67200 104000 120000 163000 212000
2020-07-11 21:30 11.92 74700 318000 (1993) 35300 (2006) 87100 39400 42100 47900 49500 67200 104000 120000 163000 212000
2020-07-11 20:30 11.92 74700 318000 (1993) 35300 (2006) 87100 39400 42100 47900 49500 67200 104000 120000 163000 212000
2020-07-11 19:30 11.93 74800 318000 (1993) 35300 (2006) 87100 39400 42100 47900 49500 67200 104000 120000 163000 212000
2020-07-11 18:30 11.93 74800 318000 (1993) 35300 (2006) 87100 39400 42100 47900 49500 67200 104000 120000 163000 212000
2020-07-11 17:30 11.96 75000 318000 (1993) 35300 (2006) 87100 39400 42100 47900 49500 67200 104000 120000 163000 212000
2020-07-11 16:30 11.97 75100 318000 (1993) 35300 (2006) 87100 39400 42100 47900 49500 67200 104000 120000 163000 212000
2020-07-11 15:30 11.97 75100 318000 (1993) 35300 (2006) 87100 39400 42100 47900 49500 67200 104000 120000 163000 212000
2020-07-11 14:30 11.98 75200 318000 (1993) 35300 (2006) 87100 39400 42100 47900 49500 67200 104000 120000 163000 212000
2020-07-11 13:30 11.99 75200 318000 (1993) 35300 (2006) 87100 39400 42100 47900 49500 67200 104000 120000 163000 212000
2020-07-11 12:30 11.93 74800 318000 (1993) 35300 (2006) 87100 39400 42100 47900 49500 67200 104000 120000 163000 212000
2020-07-11 11:30 12.01 75400 318000 (1993) 35300 (2006) 87100 39400 42100 47900 49500 67200 104000 120000 163000 212000
2020-07-11 10:30 12.02 75500 318000 (1993) 35300 (2006) 87100 39400 42100 47900 49500 67200 104000 120000 163000 212000
2020-07-11 09:30 12.05 75700 318000 (1993) 35300 (2006) 87100 39400 42100 47900 49500 67200 104000 120000 163000 212000
2020-07-11 08:30 12.05 75700 318000 (1993) 35300 (2006) 87100 39400 42100 47900 49500 67200 104000 120000 163000 212000
2020-07-11 07:30 12.04 75600 318000 (1993) 35300 (2006) 87100 39400 42100 47900 49500 67200 104000 120000 163000 212000
2020-07-11 06:30 12.09 76000 318000 (1993) 35300 (2006) 87100 39400 42100 47900 49500 67200 104000 120000 163000 212000
2020-07-11 05:30 12.11 76200 318000 (1993) 35300 (2006) 87100 39400 42100 47900 49500 67200 104000 120000 163000 212000
2020-07-11 04:30 12.11 76200 318000 (1993) 35300 (2006) 87100 39400 42100 47900 49500 67200 104000 120000 163000 212000
2020-07-11 03:30 12.12 76300 318000 (1993) 35300 (2006) 87100 39400 42100 47900 49500 67200 104000 120000 163000 212000
2020-07-11 02:30 12.14 76400 318000 (1993) 35300 (2006) 87100 39400 42100 47900 49500 67200 104000 120000 163000 212000
2020-07-11 01:30 12.16 76600 318000 (1993) 35300 (2006) 87100 39400 42100 47900 49500 67200 104000 120000 163000 212000
2020-07-11 00:30 12.17 76600 318000 (1993) 35300 (2006) 87100 39400 42100 47900 49500 67200 104000 120000 163000 212000
2020-07-10 23:30 12.17 76600 301000 (1993) 35500 (2006) 88200 39400 41900 48600 50200 70400 109000 121000 174000 197000
2020-07-10 22:30 12.20 76900 301000 (1993) 35500 (2006) 88200 39400 41900 48600 50200 70400 109000 121000 174000 197000
2020-07-10 21:30 12.21 77000 301000 (1993) 35500 (2006) 88200 39400 41900 48600 50200 70400 109000 121000 174000 197000
2020-07-10 20:30 12.21 77000 301000 (1993) 35500 (2006) 88200 39400 41900 48600 50200 70400 109000 121000 174000 197000
2020-07-10 19:30 12.23 77100 301000 (1993) 35500 (2006) 88200 39400 41900 48600 50200 70400 109000 121000 174000 197000
2020-07-10 18:30 12.25 77300 301000 (1993) 35500 (2006) 88200 39400 41900 48600 50200 70400 109000 121000 174000 197000
2020-07-10 17:30 12.26 77400 301000 (1993) 35500 (2006) 88200 39400 41900 48600 50200 70400 109000 121000 174000 197000
2020-07-10 16:30 12.29 77600 301000 (1993) 35500 (2006) 88200 39400 41900 48600 50200 70400 109000 121000 174000 197000
2020-07-10 15:30 12.31 77800 301000 (1993) 35500 (2006) 88200 39400 41900 48600 50200 70400 109000 121000 174000 197000
2020-07-10 14:30 12.32 77800 301000 (1993) 35500 (2006) 88200 39400 41900 48600 50200 70400 109000 121000 174000 197000
2020-07-10 13:30 12.34 78000 301000 (1993) 35500 (2006) 88200 39400 41900 48600 50200 70400 109000 121000 174000 197000
2020-07-10 12:30 12.34 78000 301000 (1993) 35500 (2006) 88200 39400 41900 48600 50200 70400 109000 121000 174000 197000
2020-07-10 11:30 12.34 78000 301000 (1993) 35500 (2006) 88200 39400 41900 48600 50200 70400 109000 121000 174000 197000
2020-07-10 10:30 12.36 78200 301000 (1993) 35500 (2006) 88200 39400 41900 48600 50200 70400 109000 121000 174000 197000
2020-07-10 09:30 12.36 78200 301000 (1993) 35500 (2006) 88200 39400 41900 48600 50200 70400 109000 121000 174000 197000
2020-07-10 08:30 12.34 78000 301000 (1993) 35500 (2006) 88200 39400 41900 48600 50200 70400 109000 121000 174000 197000
2020-07-10 07:30 12.39 78400 301000 (1993) 35500 (2006) 88200 39400 41900 48600 50200 70400 109000 121000 174000 197000
2020-07-10 06:30 12.41 78600 301000 (1993) 35500 (2006) 88200 39400 41900 48600 50200 70400 109000 121000 174000 197000
2020-07-10 05:30 12.41 78600 301000 (1993) 35500 (2006) 88200 39400 41900 48600 50200 70400 109000 121000 174000 197000
2020-07-10 04:30 12.42 78700 301000 (1993) 35500 (2006) 88200 39400 41900 48600 50200 70400 109000 121000 174000 197000
2020-07-10 03:30 12.43 78700 301000 (1993) 35500 (2006) 88200 39400 41900 48600 50200 70400 109000 121000 174000 197000
2020-07-10 02:30 12.44 78800 301000 (1993) 35500 (2006) 88200 39400 41900 48600 50200 70400 109000 121000 174000 197000
2020-07-10 01:30 12.46 79000 301000 (1993) 35500 (2006) 88200 39400 41900 48600 50200 70400 109000 121000 174000 197000
2020-07-10 00:30 12.46 79000 301000 (1993) 35500 (2006) 88200 39400 41900 48600 50200 70400 109000 121000 174000 197000
2020-07-09 23:30 12.48 79100 312000 (1993) 36000 (2006) 91700 39000 43300 49100 51500 71300 109000 124000 191000 210000
2020-07-09 22:30 12.49 79200 312000 (1993) 36000 (2006) 91700 39000 43300 49100 51500 71300 109000 124000 191000 210000
2020-07-09 21:30 12.51 79400 312000 (1993) 36000 (2006) 91700 39000 43300 49100 51500 71300 109000 124000 191000 210000
2020-07-09 20:30 12.50 79300 312000 (1993) 36000 (2006) 91700 39000 43300 49100 51500 71300 109000 124000 191000 210000
2020-07-09 19:30 12.46 79000 312000 (1993) 36000 (2006) 91700 39000 43300 49100 51500 71300 109000 124000 191000 210000
2020-07-09 18:30 12.36 78200 312000 (1993) 36000 (2006) 91700 39000 43300 49100 51500 71300 109000 124000 191000 210000
2020-07-09 17:30 12.41 78600 312000 (1993) 36000 (2006) 91700 39000 43300 49100 51500 71300 109000 124000 191000 210000
2020-07-09 16:30 12.46 79000 312000 (1993) 36000 (2006) 91700 39000 43300 49100 51500 71300 109000 124000 191000 210000
2020-07-09 15:30 12.49 79200 312000 (1993) 36000 (2006) 91700 39000 43300 49100 51500 71300 109000 124000 191000 210000
2020-07-09 14:30 12.48 79100 312000 (1993) 36000 (2006) 91700 39000 43300 49100 51500 71300 109000 124000 191000 210000
2020-07-09 13:30 12.55 79700 312000 (1993) 36000 (2006) 91700 39000 43300 49100 51500 71300 109000 124000 191000 210000
2020-07-09 12:30 12.51 79400 312000 (1993) 36000 (2006) 91700 39000 43300 49100 51500 71300 109000 124000 191000 210000
2020-07-09 11:30 12.51 79400 312000 (1993) 36000 (2006) 91700 39000 43300 49100 51500 71300 109000 124000 191000 210000
2020-07-09 10:30 12.49 79200 312000 (1993) 36000 (2006) 91700 39000 43300 49100 51500 71300 109000 124000 191000 210000
2020-07-09 09:30 12.52 79500 312000 (1993) 36000 (2006) 91700 39000 43300 49100 51500 71300 109000 124000 191000 210000
2020-07-09 08:30 12.54 79600 312000 (1993) 36000 (2006) 91700 39000 43300 49100 51500 71300 109000 124000 191000 210000
2020-07-09 07:30 12.57 79900 312000 (1993) 36000 (2006) 91700 39000 43300 49100 51500 71300 109000 124000 191000 210000
2020-07-09 06:30 12.58 80000 312000 (1993) 36000 (2006) 91700 39000 43300 49100 51500 71300 109000 124000 191000 210000
2020-07-09 05:30 12.57 79900 312000 (1993) 36000 (2006) 91700 39000 43300 49100 51500 71300 109000 124000 191000 210000
2020-07-09 04:30 12.58 80000 312000 (1993) 36000 (2006) 91700 39000 43300 49100 51500 71300 109000 124000 191000 210000
2020-07-09 03:30 12.59 80000 312000 (1993) 36000 (2006) 91700 39000 43300 49100 51500 71300 109000 124000 191000 210000
2020-07-09 02:30 12.61 80200 312000 (1993) 36000 (2006) 91700 39000 43300 49100 51500 71300 109000 124000 191000 210000
2020-07-09 01:30 12.61 80200 312000 (1993) 36000 (2006) 91700 39000 43300 49100 51500 71300 109000 124000 191000 210000
2020-07-09 00:30 12.63 80400 312000 (1993) 36000 (2006) 91700 39000 43300 49100 51500 71300 109000 124000 191000 210000
2020-07-08 23:30 12.65 80500 303000 (1993) 36600 (2006) 92700 39300 44400 49500 51800 79000 105000 127000 190000 216000
2020-07-08 22:30 12.65 80500 303000 (1993) 36600 (2006) 92700 39300 44400 49500 51800 79000 105000 127000 190000 216000
2020-07-08 21:30 12.67 80700 303000 (1993) 36600 (2006) 92700 39300 44400 49500 51800 79000 105000 127000 190000 216000
2020-07-08 20:30 12.68 80800 303000 (1993) 36600 (2006) 92700 39300 44400 49500 51800 79000 105000 127000 190000 216000
2020-07-08 19:30 12.68 80800 303000 (1993) 36600 (2006) 92700 39300 44400 49500 51800 79000 105000 127000 190000 216000
2020-07-08 18:30 12.70 80900 303000 (1993) 36600 (2006) 92700 39300 44400 49500 51800 79000 105000 127000 190000 216000
2020-07-08 17:30 12.72 81100 303000 (1993) 36600 (2006) 92700 39300 44400 49500 51800 79000 105000 127000 190000 216000
2020-07-08 16:30 12.71 81000 303000 (1993) 36600 (2006) 92700 39300 44400 49500 51800 79000 105000 127000 190000 216000
2020-07-08 15:30 12.77 81500 303000 (1993) 36600 (2006) 92700 39300 44400 49500 51800 79000 105000 127000 190000 216000
2020-07-08 14:30 12.80 81800 303000 (1993) 36600 (2006) 92700 39300 44400 49500 51800 79000 105000 127000 190000 216000
2020-07-08 13:30 12.83 82000 303000 (1993) 36600 (2006) 92700 39300 44400 49500 51800 79000 105000 127000 190000 216000
2020-07-08 12:30 12.84 82100 303000 (1993) 36600 (2006) 92700 39300 44400 49500 51800 79000 105000 127000 190000 216000
2020-07-08 11:30 12.82 81900 303000 (1993) 36600 (2006) 92700 39300 44400 49500 51800 79000 105000 127000 190000 216000
2020-07-08 10:30 12.81 81900 303000 (1993) 36600 (2006) 92700 39300 44400 49500 51800 79000 105000 127000 190000 216000
2020-07-08 09:30 12.88 82400 303000 (1993) 36600 (2006) 92700 39300 44400 49500 51800 79000 105000 127000 190000 216000
2020-07-08 08:30 12.91 82700 303000 (1993) 36600 (2006) 92700 39300 44400 49500 51800 79000 105000 127000 190000 216000
2020-07-08 07:30 12.94 82900 303000 (1993) 36600 (2006) 92700 39300 44400 49500 51800 79000 105000 127000 190000 216000
2020-07-08 06:30 12.97 83200 303000 (1993) 36600 (2006) 92700 39300 44400 49500 51800 79000 105000 127000 190000 216000
2020-07-08 05:30 12.99 83400 303000 (1993) 36600 (2006) 92700 39300 44400 49500 51800 79000 105000 127000 190000 216000
2020-07-08 04:30 12.99 83400 303000 (1993) 36600 (2006) 92700 39300 44400 49500 51800 79000 105000 127000 190000 216000
2020-07-08 03:30 13.01 83500 303000 (1993) 36600 (2006) 92700 39300 44400 49500 51800 79000 105000 127000 190000 216000
2020-07-08 02:30 13.05 83900 303000 (1993) 36600 (2006) 92700 39300 44400 49500 51800 79000 105000 127000 190000 216000
2020-07-08 01:30 13.08 84100 303000 (1993) 36600 (2006) 92700 39300 44400 49500 51800 79000 105000 127000 190000 216000
2020-07-08 00:30 13.10 84300 303000 (1993) 36600 (2006) 92700 39300 44400 49500 51800 79000 105000 127000 190000 216000
2020-07-07 23:30 13.13 84600 283000 (1993) 38000 (2006) 92300 39900 44200 48900 52700 82300 106000 113000 176000 208000
2020-07-07 22:30 13.17 84900 283000 (1993) 38000 (2006) 92300 39900 44200 48900 52700 82300 106000 113000 176000 208000
2020-07-07 21:30 13.18 85000 283000 (1993) 38000 (2006) 92300 39900 44200 48900 52700 82300 106000 113000 176000 208000
2020-07-07 20:30 13.21 85200 283000 (1993) 38000 (2006) 92300 39900 44200 48900 52700 82300 106000 113000 176000 208000
2020-07-07 19:30 13.21 85200 283000 (1993) 38000 (2006) 92300 39900 44200 48900 52700 82300 106000 113000 176000 208000
2020-07-07 18:30 13.23 85400 283000 (1993) 38000 (2006) 92300 39900 44200 48900 52700 82300 106000 113000 176000 208000
2020-07-07 17:30 13.20 85200 283000 (1993) 38000 (2006) 92300 39900 44200 48900 52700 82300 106000 113000 176000 208000
2020-07-07 16:30 13.30 86000 283000 (1993) 38000 (2006) 92300 39900 44200 48900 52700 82300 106000 113000 176000 208000
2020-07-07 15:30 13.32 86200 283000 (1993) 38000 (2006) 92300 39900 44200 48900 52700 82300 106000 113000 176000 208000
2020-07-07 14:30 13.33 86300 283000 (1993) 38000 (2006) 92300 39900 44200 48900 52700 82300 106000 113000 176000 208000
2020-07-07 13:30 13.35 86500 283000 (1993) 38000 (2006) 92300 39900 44200 48900 52700 82300 106000 113000 176000 208000
2020-07-07 12:30 13.35 86500 283000 (1993) 38000 (2006) 92300 39900 44200 48900 52700 82300 106000 113000 176000 208000
2020-07-07 11:30 13.35 86500 283000 (1993) 38000 (2006) 92300 39900 44200 48900 52700 82300 106000 113000 176000 208000
2020-07-07 10:30 13.30 86000 283000 (1993) 38000 (2006) 92300 39900 44200 48900 52700 82300 106000 113000 176000 208000
2020-07-07 09:30 13.46 87400 283000 (1993) 38000 (2006) 92300 39900 44200 48900 52700 82300 106000 113000 176000 208000
2020-07-07 08:30 13.49 87700 283000 (1993) 38000 (2006) 92300 39900 44200 48900 52700 82300 106000 113000 176000 208000
2020-07-07 07:30 13.51 87900 283000 (1993) 38000 (2006) 92300 39900 44200 48900 52700 82300 106000 113000 176000 208000
2020-07-07 06:30 13.55 88200 283000 (1993) 38000 (2006) 92300 39900 44200 48900 52700 82300 106000 113000 176000 208000
2020-07-07 05:30 13.56 88300 283000 (1993) 38000 (2006) 92300 39900 44200 48900 52700 82300 106000 113000 176000 208000
2020-07-07 04:30 13.59 88600 283000 (1993) 38000 (2006) 92300 39900 44200 48900 52700 82300 106000 113000 176000 208000
2020-07-07 03:30 13.61 88700 283000 (1993) 38000 (2006) 92300 39900 44200 48900 52700 82300 106000 113000 176000 208000
2020-07-07 02:30 13.64 89000 283000 (1993) 38000 (2006) 92300 39900 44200 48900 52700 82300 106000 113000 176000 208000
2020-07-07 01:30 13.68 89400 283000 (1993) 38000 (2006) 92300 39900 44200 48900 52700 82300 106000 113000 176000 208000
2020-07-07 00:30 13.72 89700 283000 (1993) 38000 (2006) 92300 39900 44200 48900 52700 82300 106000 113000 176000 208000
2020-07-06 23:30 13.73 89800 273000 (1993) 38500 (2006) 94300 40400 43400 49800 54900 82500 119000 129000 168000 215000
2020-07-06 22:30 13.81 90500 273000 (1993) 38500 (2006) 94300 40400 43400 49800 54900 82500 119000 129000 168000 215000
2020-07-06 21:30 13.85 90900 273000 (1993) 38500 (2006) 94300 40400 43400 49800 54900 82500 119000 129000 168000 215000
2020-07-06 20:30 13.86 91000 273000 (1993) 38500 (2006) 94300 40400 43400 49800 54900 82500 119000 129000 168000 215000
2020-07-06 19:30 13.91 91400 273000 (1993) 38500 (2006) 94300 40400 43400 49800 54900 82500 119000 129000 168000 215000
2020-07-06 18:30 13.93 91600 273000 (1993) 38500 (2006) 94300 40400 43400 49800 54900 82500 119000 129000 168000 215000
2020-07-06 17:30 13.97 92000 273000 (1993) 38500 (2006) 94300 40400 43400 49800 54900 82500 119000 129000 168000 215000
2020-07-06 16:30 14.02 92400 273000 (1993) 38500 (2006) 94300 40400 43400 49800 54900 82500 119000 129000 168000 215000
2020-07-06 15:30 14.03 92500 273000 (1993) 38500 (2006) 94300 40400 43400 49800 54900 82500 119000 129000 168000 215000
2020-07-06 14:30 14.10 93200 273000 (1993) 38500 (2006) 94300 40400 43400 49800 54900 82500 119000 129000 168000 215000
2020-07-06 13:30 14.12 93400 273000 (1993) 38500 (2006) 94300 40400 43400 49800 54900 82500 119000 129000 168000 215000
2020-07-06 12:30 14.16 93700 273000 (1993) 38500 (2006) 94300 40400 43400 49800 54900 82500 119000 129000 168000 215000
2020-07-06 11:30 14.22 94300 273000 (1993) 38500 (2006) 94300 40400 43400 49800 54900 82500 119000 129000 168000 215000
2020-07-06 10:30 14.24 94500 273000 (1993) 38500 (2006) 94300 40400 43400 49800 54900 82500 119000 129000 168000 215000
2020-07-06 09:30 14.32 95200 273000 (1993) 38500 (2006) 94300 40400 43400 49800 54900 82500 119000 129000 168000 215000
2020-07-06 08:30 14.34 95400 273000 (1993) 38500 (2006) 94300 40400 43400 49800 54900 82500 119000 129000 168000 215000
2020-07-06 07:30 14.41 96100 273000 (1993) 38500 (2006) 94300 40400 43400 49800 54900 82500 119000 129000 168000 215000
2020-07-06 06:30 14.46 96500 273000 (1993) 38500 (2006) 94300 40400 43400 49800 54900 82500 119000 129000 168000 215000
2020-07-06 05:30 14.54 97300 273000 (1993) 38500 (2006) 94300 40400 43400 49800 54900 82500 119000 129000 168000 215000
2020-07-06 04:30 14.60 97900 273000 (1993) 38500 (2006) 94300 40400 43400 49800 54900 82500 119000 129000 168000 215000
2020-07-06 03:30 14.62 98100 273000 (1993) 38500 (2006) 94300 40400 43400 49800 54900 82500 119000 129000 168000 215000
2020-07-06 02:30 14.65 98400 273000 (1993) 38500 (2006) 94300 40400 43400 49800 54900 82500 119000 129000 168000 215000
2020-07-06 01:30 14.68 98600 273000 (1993) 38500 (2006) 94300 40400 43400 49800 54900 82500 119000 129000 168000 215000
2020-07-06 00:30 14.72 99000 273000 (1993) 38500 (2006) 94300 40400 43400 49800 54900 82500 119000 129000 168000 215000

A total of 187 rows are displayed for years 1958 through 2019.